ENSD/SDN METAR and TAF weather

Enter ICAO airport designator
Station Type Date Time Source
ENSD METAR 2018/04/26 18:50 UTC NOAA

ENSD 261850Z VRB01KT 9999 FEW034 SCT042 BKN050 07/03 Q1001 RMK WIND 1138FT VRB01KT


Station Type Date Time Source
ENSD Decoded METAR 2018/04/26 18:50 UTC NOAA

Sandane / Anda, Norway (ENSD) 61-50N 006-07E 60M
Apr 26, 2018 - 02:50 PM EDT / 2018.04.26 1850 UTC
Wind: Variable at 1 MPH (1 KT):0
Visibility: greater than 7 mile(s):0
Sky conditions: mostly cloudy
Temperature: 44 F (7 C)
Dew Point: 37 F (3 C)
Relative Humidity: 75%
Pressure (altimeter): 29.56 in. Hg (1001 hPa)
ob: ENSD 261850Z VRB01KT 9999 FEW034 SCT042 BKN050 07/03 Q1001 RMK WIND 1138FT VRB01KT
cycle: 19

Station Type Date Time Source
ENSD TAF UTC NOAA

Error!


Example: see airport list